createdAt,value
2023-01-28T00:01:06.386Z,2.43
2023-01-28T00:03:33.986Z,2.41
2023-01-28T00:06:05.364Z,2.29
2023-01-28T00:08:33.794Z,2.30
2023-01-28T00:11:01.967Z,2.43
2023-01-28T00:13:29.727Z,2.52
2023-01-28T00:15:58.401Z,2.50
2023-01-28T00:18:26.458Z,2.53
2023-01-28T00:20:57.651Z,2.39
2023-01-28T00:23:25.397Z,2.36
2023-01-28T00:25:52.932Z,2.51
2023-01-28T00:28:20.508Z,2.58
2023-01-28T00:30:48.073Z,2.60
2023-01-28T00:33:15.640Z,2.63
2023-01-28T00:35:43.304Z,2.68
2023-01-28T00:38:11.099Z,2.77
2023-01-28T00:40:38.660Z,2.75
2023-01-28T00:43:06.263Z,2.71
2023-01-28T00:45:33.776Z,2.64
2023-01-28T00:48:01.341Z,2.63
2023-01-28T00:50:28.879Z,2.62
2023-01-28T00:52:56.384Z,2.57
2023-01-28T00:55:23.956Z,2.54
2023-01-28T00:57:51.672Z,2.70
2023-01-28T01:00:21.134Z,2.76
2023-01-28T01:02:48.730Z,2.83
2023-01-28T01:05:16.558Z,2.60
2023-01-28T01:07:44.431Z,2.52
2023-01-28T01:10:12.791Z,2.44
2023-01-28T01:12:40.659Z,2.64
2023-01-28T01:15:10.394Z,2.70
2023-01-28T01:17:42.590Z,2.59
2023-01-28T01:20:13.329Z,2.65
2023-01-28T01:22:40.865Z,2.64
2023-01-28T01:25:08.685Z,2.67
2023-01-28T01:27:36.223Z,2.71
2023-01-28T01:30:04.309Z,2.54
2023-01-28T01:32:32.676Z,2.66
2023-01-28T01:35:00.228Z,2.69
2023-01-28T01:37:28.436Z,2.45
2023-01-28T01:39:56.027Z,2.61
2023-01-28T01:42:23.620Z,2.55
2023-01-28T01:44:51.121Z,2.59
2023-01-28T01:47:19.655Z,2.63
2023-01-28T01:49:47.277Z,2.56
2023-01-28T01:52:17.789Z,2.68
2023-01-28T01:54:48.098Z,2.71
2023-01-28T01:57:17.258Z,2.65
2023-01-28T01:59:45.012Z,2.62
2023-01-28T02:02:12.878Z,2.64
2023-01-28T02:04:41.749Z,2.66
2023-01-28T02:07:10.461Z,2.50
2023-01-28T02:09:38.573Z,2.48
2023-01-28T02:12:09.288Z,2.47
2023-01-28T02:14:39.343Z,2.53
2023-01-28T02:17:06.874Z,2.51
2023-01-28T02:19:55.266Z,2.51
2023-01-28T02:22:28.870Z,2.50
2023-01-28T02:25:15.106Z,2.53
2023-01-28T02:27:51.963Z,2.56
2023-01-28T02:30:36.229Z,2.61
2023-01-28T02:33:07.868Z,2.53
2023-01-28T02:35:49.908Z,2.59
2023-01-28T02:38:25.006Z,2.53
2023-01-28T02:41:05.761Z,2.54
2023-01-28T02:43:36.175Z,2.56
2023-01-28T02:46:29.048Z,2.45
2023-01-28T02:48:56.705Z,2.60
2023-01-28T02:51:24.151Z,2.48
2023-01-28T02:53:55.843Z,2.53
2023-01-28T02:56:38.817Z,2.48
2023-01-28T02:59:22.957Z,2.53
2023-01-28T03:01:58.324Z,2.44
2023-01-28T03:04:29.633Z,2.32
2023-01-28T03:06:59.372Z,2.39
2023-01-28T03:09:27.887Z,2.50
2023-01-28T03:12:31.441Z,2.45
2023-01-28T03:15:22.002Z,2.23
2023-01-28T03:18:16.066Z,2.22
2023-01-28T03:21:04.004Z,2.29
2023-01-28T03:23:57.449Z,2.30
2023-01-28T03:26:43.557Z,2.19
2023-01-28T03:29:31.367Z,2.15
2023-01-28T03:32:17.194Z,2.06
2023-01-28T03:35:03.041Z,2.17
2023-01-28T03:37:32.010Z,2.09
2023-01-28T03:40:04.449Z,2.11
2023-01-28T03:42:32.096Z,2.14
2023-01-28T03:45:01.709Z,2.16
2023-01-28T03:47:30.390Z,2.10
2023-01-28T03:49:59.737Z,2.14
2023-01-28T03:52:31.046Z,2.19
2023-01-28T03:54:58.519Z,2.15
2023-01-28T03:57:27.275Z,2.16
2023-01-28T03:59:55.214Z,2.16
2023-01-28T04:02:23.507Z,2.18
2023-01-28T04:04:51.184Z,2.22
2023-01-28T04:07:18.667Z,2.18
2023-01-28T04:09:46.401Z,2.21
2023-01-28T04:12:13.950Z,2.16
2023-01-28T04:14:41.401Z,2.14
2023-01-28T04:17:11.049Z,2.09
2023-01-28T04:19:38.667Z,2.16
2023-01-28T04:22:07.572Z,2.11
2023-01-28T04:24:35.037Z,1.94
2023-01-28T04:27:02.575Z,2.14
2023-01-28T04:29:30.033Z,2.08
2023-01-28T04:31:57.474Z,2.13
2023-01-28T04:34:24.862Z,2.15
2023-01-28T04:36:52.272Z,2.13
2023-01-28T04:39:19.722Z,2.14
2023-01-28T04:41:47.237Z,2.14
2023-01-28T04:44:16.823Z,1.92
2023-01-28T04:46:44.369Z,2.02
2023-01-28T04:49:11.769Z,1.96
2023-01-28T04:51:39.139Z,2.07
2023-01-28T04:54:06.573Z,1.85
2023-01-28T04:56:34.039Z,1.93
2023-01-28T04:59:02.187Z,1.90
2023-01-28T05:01:30.180Z,1.79
2023-01-28T05:03:57.651Z,1.81
2023-01-28T05:06:25.050Z,1.65
2023-01-28T05:08:52.471Z,2.01
2023-01-28T05:11:19.908Z,1.89
2023-01-28T05:13:47.401Z,1.85
2023-01-28T05:16:14.917Z,2.02
2023-01-28T05:18:44.707Z,1.87
2023-01-28T05:21:12.294Z,1.79
2023-01-28T05:23:39.689Z,1.99
2023-01-28T05:26:07.244Z,1.95
2023-01-28T05:28:34.713Z,2.05
2023-01-28T05:31:06.021Z,2.04
2023-01-28T05:33:33.857Z,2.11
2023-01-28T05:36:01.277Z,2.11
2023-01-28T05:38:28.747Z,2.09
2023-01-28T05:40:56.188Z,2.16
2023-01-28T05:43:23.625Z,2.15
2023-01-28T05:45:51.129Z,2.11
2023-01-28T05:48:18.591Z,2.05
2023-01-28T05:50:47.847Z,2.00
2023-01-28T05:53:15.317Z,2.00
2023-01-28T05:55:42.709Z,2.07
2023-01-28T05:58:10.194Z,1.88
2023-01-28T06:00:37.631Z,1.97
2023-01-28T06:03:05.034Z,2.13
2023-01-28T06:05:32.528Z,2.06
2023-01-28T06:07:59.995Z,2.07
2023-01-28T06:10:27.441Z,1.84
2023-01-28T06:12:54.838Z,1.97
2023-01-28T06:15:22.323Z,1.83
2023-01-28T06:17:49.799Z,1.68
2023-01-28T06:20:18.041Z,1.85
2023-01-28T06:22:45.506Z,1.78
2023-01-28T06:25:12.962Z,1.95
2023-01-28T06:27:41.510Z,1.96
2023-01-28T06:30:09.291Z,1.79
2023-01-28T06:32:36.690Z,1.82
2023-01-28T06:35:04.296Z,1.78
2023-01-28T06:37:31.711Z,1.83
2023-01-28T06:39:59.148Z,1.95
2023-01-28T06:42:26.541Z,1.85
2023-01-28T06:44:53.914Z,1.92
2023-01-28T06:47:21.457Z,1.94
2023-01-28T06:49:48.899Z,2.08
2023-01-28T06:52:16.328Z,2.04
2023-01-28T06:54:43.709Z,2.03
2023-01-28T06:57:11.106Z,2.03
2023-01-28T06:59:38.533Z,2.05
2023-01-28T07:02:06.002Z,2.13
2023-01-28T07:04:33.536Z,2.01
2023-01-28T07:07:00.954Z,2.04
2023-01-28T07:09:28.423Z,2.12
2023-01-28T07:11:55.874Z,2.01
2023-01-28T07:14:23.337Z,1.96
2023-01-28T07:16:50.830Z,1.88
2023-01-28T07:19:18.230Z,1.97
2023-01-28T07:21:45.710Z,1.98
2023-01-28T07:24:13.130Z,1.97
2023-01-28T07:26:40.533Z,1.91
2023-01-28T07:29:07.907Z,2.04
2023-01-28T07:31:35.497Z,2.10
2023-01-28T07:34:02.970Z,2.09
2023-01-28T07:36:30.407Z,2.10
2023-01-28T07:38:57.839Z,2.11
2023-01-28T07:41:25.287Z,1.89
2023-01-28T07:43:52.700Z,2.03
2023-01-28T07:46:20.165Z,2.06
2023-01-28T07:48:47.673Z,2.20
2023-01-28T07:51:15.077Z,2.27
2023-01-28T07:53:42.535Z,2.32
2023-01-28T07:56:09.944Z,2.16
2023-01-28T07:58:37.410Z,2.21
2023-01-28T08:01:04.929Z,2.00
2023-01-28T08:03:32.728Z,2.08
2023-01-28T08:06:00.202Z,1.88
2023-01-28T08:08:28.213Z,2.05
2023-01-28T08:10:55.656Z,2.08
2023-01-28T08:13:23.079Z,2.26
2023-01-28T08:15:50.525Z,1.96
2023-01-28T08:18:18.007Z,2.02
2023-01-28T08:20:47.207Z,1.98
2023-01-28T08:23:16.118Z,2.02
2023-01-28T08:25:43.568Z,2.03
2023-01-28T08:28:11.375Z,2.07
2023-01-28T08:30:39.170Z,1.99
2023-01-28T08:33:07.883Z,2.17
2023-01-28T08:35:35.859Z,2.19
2023-01-28T08:38:04.915Z,2.38
2023-01-28T08:40:32.337Z,2.32
2023-01-28T08:42:59.781Z,2.37
2023-01-28T08:45:28.510Z,2.26
2023-01-28T08:47:57.464Z,2.41
2023-01-28T08:50:26.488Z,2.31
2023-01-28T08:52:57.794Z,2.27
2023-01-28T08:55:25.537Z,2.33
2023-01-28T08:57:53.115Z,2.37
2023-01-28T09:00:20.745Z,2.40
2023-01-28T09:02:48.162Z,2.25
2023-01-28T09:05:16.117Z,2.26
2023-01-28T09:07:43.535Z,2.24
2023-01-28T09:10:11.277Z,2.48
2023-01-28T09:12:38.946Z,2.52
2023-01-28T09:15:06.788Z,2.48
2023-01-28T09:17:34.199Z,2.58
2023-01-28T09:20:03.708Z,2.76
2023-01-28T09:22:33.971Z,2.53
2023-01-28T09:25:01.455Z,2.76
2023-01-28T09:27:28.890Z,2.80
2023-01-28T09:29:56.370Z,2.65
2023-01-28T09:32:24.784Z,2.75
2023-01-28T09:34:52.282Z,2.78
2023-01-28T09:37:19.681Z,2.89
2023-01-28T09:39:47.066Z,2.79
2023-01-28T09:42:33.000Z,2.72
2023-01-28T09:45:10.137Z,3.06
2023-01-28T09:47:53.651Z,3.39
2023-01-28T09:50:24.092Z,3.38
2023-01-28T09:52:53.366Z,3.66
2023-01-28T09:55:26.164Z,3.49
2023-01-28T09:57:55.475Z,3.60
2023-01-28T10:00:39.033Z,4.00
2023-01-28T10:03:29.319Z,4.05
2023-01-28T10:06:12.226Z,4.25
2023-01-28T10:08:47.149Z,4.15
2023-01-28T10:11:33.364Z,4.58
2023-01-28T10:14:21.001Z,4.51
2023-01-28T10:16:52.902Z,4.75
2023-01-28T10:19:20.252Z,4.61
2023-01-28T10:21:50.885Z,4.74
2023-01-28T10:24:19.852Z,4.71
2023-01-28T10:26:47.320Z,4.92
2023-01-28T10:29:26.806Z,4.49
2023-01-28T10:31:54.343Z,4.69
2023-01-28T10:34:22.443Z,5.03
2023-01-28T10:36:51.039Z,5.36
2023-01-28T10:39:20.993Z,5.72
2023-01-28T10:41:57.389Z,5.87
2023-01-28T10:44:39.875Z,6.00
2023-01-28T10:47:12.162Z,5.72
2023-01-28T10:49:42.991Z,5.97
2023-01-28T10:52:14.786Z,6.38
2023-01-28T10:54:42.254Z,6.28
2023-01-28T10:57:15.291Z,6.44
2023-01-28T10:59:43.154Z,6.41
2023-01-28T11:02:29.145Z,6.75
2023-01-28T11:05:02.779Z,6.07
2023-01-28T11:07:30.233Z,6.29
2023-01-28T11:09:57.697Z,6.19
2023-01-28T11:12:27.042Z,5.81
2023-01-28T11:14:58.590Z,6.27
2023-01-28T11:17:27.588Z,6.56
2023-01-28T11:19:56.092Z,6.78
2023-01-28T11:22:34.970Z,6.03
2023-01-28T11:25:22.633Z,6.66
2023-01-28T11:27:50.898Z,6.83
2023-01-28T11:30:47.723Z,7.05
2023-01-28T11:33:23.594Z,7.10
2023-01-28T11:35:58.298Z,7.24
2023-01-28T11:38:26.913Z,7.32
2023-01-28T11:40:55.467Z,7.55
2023-01-28T11:43:23.720Z,6.76
2023-01-28T11:46:09.713Z,6.82
2023-01-28T11:48:46.995Z,6.50
2023-01-28T11:51:25.113Z,6.63
2023-01-28T11:53:52.579Z,7.00
2023-01-28T11:56:23.195Z,7.00
2023-01-28T11:59:02.220Z,6.56
2023-01-28T12:01:49.031Z,6.98
2023-01-28T12:04:31.882Z,7.40
2023-01-28T12:07:18.089Z,7.30
2023-01-28T12:10:08.026Z,6.65
2023-01-28T12:12:49.412Z,6.87
2023-01-28T12:15:19.988Z,6.81
2023-01-28T12:18:02.570Z,6.52
2023-01-28T12:20:38.988Z,6.59
2023-01-28T12:23:22.130Z,6.92
2023-01-28T12:25:56.824Z,6.90
2023-01-28T12:28:24.476Z,6.32
2023-01-28T12:31:14.288Z,6.11
2023-01-28T12:33:54.588Z,5.89
2023-01-28T12:36:22.046Z,5.86
2023-01-28T12:39:04.756Z,6.12
2023-01-28T12:41:36.973Z,6.51
2023-01-28T12:44:06.824Z,6.39
2023-01-28T12:46:49.615Z,6.29
2023-01-28T12:49:17.012Z,6.62
2023-01-28T12:51:44.534Z,6.91
2023-01-28T12:54:21.453Z,6.80
2023-01-28T12:56:55.666Z,6.55
2023-01-28T12:59:29.207Z,6.85
2023-01-28T13:02:06.762Z,6.81
2023-01-28T13:04:43.446Z,6.71
2023-01-28T13:07:16.740Z,7.02
2023-01-28T13:09:50.523Z,7.17
2023-01-28T13:12:18.451Z,7.15
2023-01-28T13:14:46.519Z,7.42
2023-01-28T13:17:25.490Z,7.77
2023-01-28T13:19:52.989Z,7.80
2023-01-28T13:22:35.161Z,7.71
2023-01-28T13:25:15.056Z,7.46
2023-01-28T13:27:42.676Z,7.61
2023-01-28T13:30:27.226Z,7.86
2023-01-28T13:33:05.677Z,7.68
2023-01-28T13:35:40.529Z,7.62
2023-01-28T13:38:10.000Z,7.40
2023-01-28T13:40:37.562Z,7.61
2023-01-28T13:43:06.931Z,7.30
2023-01-28T13:45:35.004Z,7.17
2023-01-28T13:48:22.462Z,6.84
2023-01-28T13:50:53.185Z,7.13
2023-01-28T13:53:28.581Z,6.80
2023-01-28T13:55:59.222Z,6.77
2023-01-28T13:58:35.156Z,6.73
2023-01-28T14:01:05.884Z,6.80
2023-01-28T14:03:43.449Z,7.40
2023-01-28T14:06:30.742Z,7.83
2023-01-28T14:09:07.411Z,8.25
2023-01-28T14:11:43.837Z,8.36
2023-01-28T14:14:33.371Z,8.57
2023-01-28T14:17:06.843Z,8.95
2023-01-28T14:19:36.346Z,8.45
2023-01-28T14:22:10.743Z,8.16
2023-01-28T14:24:39.042Z,7.74
2023-01-28T14:27:21.542Z,7.33
2023-01-28T14:29:58.195Z,6.98
2023-01-28T14:32:28.574Z,6.91
2023-01-28T14:34:57.695Z,6.50
2023-01-28T14:37:28.522Z,6.42
2023-01-28T14:39:59.223Z,6.46
2023-01-28T14:42:32.328Z,6.10
2023-01-28T14:45:02.897Z,5.73
2023-01-28T14:47:43.702Z,5.80
2023-01-28T14:50:23.115Z,5.85
2023-01-28T14:52:56.498Z,5.70
2023-01-28T14:55:26.818Z,5.78
2023-01-28T14:57:59.748Z,5.93
2023-01-28T15:00:28.564Z,5.93
2023-01-28T15:02:56.152Z,5.85
2023-01-28T15:05:25.167Z,5.74
2023-01-28T15:07:52.653Z,5.67
2023-01-28T15:10:20.435Z,5.71
2023-01-28T15:12:50.443Z,5.62
2023-01-28T15:15:26.793Z,5.52
2023-01-28T15:17:54.665Z,5.15
2023-01-28T15:20:24.214Z,5.48
2023-01-28T15:22:52.960Z,5.39
2023-01-28T15:25:22.365Z,5.40
2023-01-28T15:27:51.268Z,5.30
2023-01-28T15:30:22.077Z,5.34
2023-01-28T15:32:58.127Z,5.42
2023-01-28T15:35:25.595Z,5.46
2023-01-28T15:37:53.037Z,5.37
2023-01-28T15:40:21.537Z,5.40
2023-01-28T15:42:50.064Z,5.45
2023-01-28T15:45:19.964Z,5.36
2023-01-28T15:48:03.539Z,5.28
2023-01-28T15:50:31.104Z,5.39
2023-01-28T15:52:58.574Z,5.26
2023-01-28T15:55:33.134Z,5.01
2023-01-28T15:58:10.479Z,5.05
2023-01-28T16:00:38.087Z,4.94
2023-01-28T16:03:11.734Z,4.95
2023-01-28T16:05:43.341Z,5.09
2023-01-28T16:08:12.939Z,4.99
2023-01-28T16:10:40.470Z,4.95
2023-01-28T16:13:17.397Z,4.86
2023-01-28T16:15:49.125Z,4.85
2023-01-28T16:18:43.358Z,4.84
2023-01-28T16:21:13.039Z,4.78
2023-01-28T16:23:40.782Z,4.83
2023-01-28T16:26:21.207Z,4.94
2023-01-28T16:28:48.737Z,4.90
2023-01-28T16:31:16.477Z,4.86
2023-01-28T16:33:44.022Z,4.82
2023-01-28T16:36:12.774Z,4.80
2023-01-28T16:38:40.923Z,4.89
2023-01-28T16:41:16.835Z,4.95
2023-01-28T16:43:44.297Z,4.64
2023-01-28T16:46:12.443Z,4.88
2023-01-28T16:48:39.916Z,4.76
2023-01-28T16:51:07.796Z,4.76
2023-01-28T16:53:35.615Z,4.86
2023-01-28T16:56:03.443Z,4.99
2023-01-28T16:58:31.439Z,4.93
2023-01-28T17:00:59.436Z,4.96
2023-01-28T17:03:27.079Z,4.76
2023-01-28T17:05:54.760Z,4.78
2023-01-28T17:08:22.223Z,4.76
2023-01-28T17:10:54.940Z,4.74
2023-01-28T17:13:22.644Z,4.78
2023-01-28T17:15:50.086Z,4.73
2023-01-28T17:18:17.709Z,4.72
2023-01-28T17:20:45.377Z,4.74
2023-01-28T17:23:16.942Z,4.70
2023-01-28T17:25:44.853Z,4.72
2023-01-28T17:28:12.558Z,4.76
2023-01-28T17:30:41.625Z,4.77
2023-01-28T17:33:09.472Z,4.73
2023-01-28T17:35:37.086Z,4.72
2023-01-28T17:38:05.365Z,4.65
2023-01-28T17:40:33.702Z,4.67
2023-01-28T17:43:01.369Z,4.61
2023-01-28T17:45:31.329Z,4.60
2023-01-28T17:47:59.245Z,4.44
2023-01-28T17:50:26.716Z,4.71
2023-01-28T17:52:57.795Z,4.52
2023-01-28T17:55:25.867Z,4.39
2023-01-28T17:57:53.287Z,4.47
2023-01-28T18:00:20.999Z,4.45
2023-01-28T18:02:50.326Z,4.49
2023-01-28T18:05:18.099Z,4.35
2023-01-28T18:07:46.156Z,4.33
2023-01-28T18:10:14.159Z,4.25
2023-01-28T18:12:42.039Z,4.27
2023-01-28T18:15:11.232Z,4.24
2023-01-28T18:17:38.862Z,4.33
2023-01-28T18:20:06.893Z,4.33
2023-01-28T18:22:34.591Z,4.20
2023-01-28T18:25:02.006Z,4.24
2023-01-28T18:27:29.437Z,4.33
2023-01-28T18:29:57.835Z,4.37
2023-01-28T18:32:26.685Z,4.26
2023-01-28T18:34:54.145Z,3.94
2023-01-28T18:37:21.597Z,3.97
2023-01-28T18:39:49.075Z,4.21
2023-01-28T18:42:16.633Z,3.92
2023-01-28T18:44:44.062Z,4.22
2023-01-28T18:47:11.542Z,4.13
2023-01-28T18:49:38.982Z,4.15
2023-01-28T18:52:06.475Z,4.20
2023-01-28T18:54:34.082Z,4.22
2023-01-28T18:57:01.630Z,4.31
2023-01-28T18:59:29.104Z,4.33
2023-01-28T19:01:56.682Z,3.97
2023-01-28T19:04:24.152Z,3.99
2023-01-28T19:06:51.554Z,3.95
2023-01-28T19:09:19.020Z,4.01
2023-01-28T19:11:48.339Z,3.88
2023-01-28T19:14:16.595Z,3.81
2023-01-28T19:16:44.873Z,3.85
2023-01-28T19:19:12.751Z,3.77
2023-01-28T19:21:40.239Z,3.78
2023-01-28T19:24:09.688Z,3.97
2023-01-28T19:26:38.027Z,3.81
2023-01-28T19:29:07.792Z,3.98
2023-01-28T19:31:35.372Z,4.02
2023-01-28T19:34:02.808Z,3.85
2023-01-28T19:36:31.203Z,3.88
2023-01-28T19:39:00.026Z,3.87
2023-01-28T19:41:28.326Z,3.77
2023-01-28T19:43:56.164Z,3.89
2023-01-28T19:46:23.788Z,3.99
2023-01-28T19:48:51.206Z,3.89
2023-01-28T19:51:18.748Z,3.84
2023-01-28T19:53:46.339Z,3.88
2023-01-28T19:56:15.603Z,3.81
2023-01-28T19:58:44.114Z,3.81
2023-01-28T20:01:13.067Z,3.79
2023-01-28T20:03:40.873Z,3.91
2023-01-28T20:06:11.696Z,3.95
2023-01-28T20:08:39.138Z,3.77
2023-01-28T20:11:10.174Z,3.70
2023-01-28T20:13:38.698Z,3.58
2023-01-28T20:16:10.035Z,3.64
2023-01-28T20:18:37.545Z,3.61
2023-01-28T20:21:06.075Z,3.60
2023-01-28T20:23:33.734Z,3.69
2023-01-28T20:26:01.730Z,3.77
2023-01-28T20:28:29.304Z,3.73
2023-01-28T20:30:57.179Z,3.52
2023-01-28T20:33:24.838Z,3.66
2023-01-28T20:35:52.334Z,3.56
2023-01-28T20:38:20.353Z,3.50
2023-01-28T20:40:47.816Z,3.43
2023-01-28T20:43:15.737Z,3.52
2023-01-28T20:45:43.226Z,3.65
2023-01-28T20:48:10.642Z,3.63
2023-01-28T20:50:38.048Z,3.67
2023-01-28T20:53:05.736Z,3.64
2023-01-28T20:55:33.272Z,3.65
2023-01-28T20:58:01.135Z,3.47
2023-01-28T21:00:28.543Z,3.69
2023-01-28T21:02:56.027Z,3.68
2023-01-28T21:05:23.482Z,3.64
2023-01-28T21:07:50.894Z,3.79
2023-01-28T21:10:18.690Z,3.64
2023-01-28T21:12:46.389Z,3.58
2023-01-28T21:15:13.803Z,3.53
2023-01-28T21:17:41.206Z,3.44
2023-01-28T21:20:08.968Z,3.48
2023-01-28T21:22:36.376Z,3.54
2023-01-28T21:25:05.519Z,3.57
2023-01-28T21:27:35.656Z,3.59
2023-01-28T21:30:03.200Z,3.70
2023-01-28T21:32:30.976Z,3.74
2023-01-28T21:34:58.535Z,3.80
2023-01-28T21:37:26.625Z,3.56
2023-01-28T21:39:54.050Z,3.52
2023-01-28T21:42:21.571Z,3.74
2023-01-28T21:44:49.129Z,3.82
2023-01-28T21:47:16.532Z,3.86
2023-01-28T21:49:44.051Z,3.64
2023-01-28T21:52:13.065Z,3.65
2023-01-28T21:54:40.525Z,3.58
2023-01-28T21:57:08.025Z,3.56
2023-01-28T21:59:38.105Z,3.51
2023-01-28T22:02:07.487Z,3.57
2023-01-28T22:04:36.377Z,3.57
2023-01-28T22:07:04.692Z,3.57
2023-01-28T22:09:33.503Z,3.60
2023-01-28T22:12:03.335Z,3.63
2023-01-28T22:14:31.016Z,3.66
2023-01-28T22:16:58.551Z,3.69
2023-01-28T22:19:26.049Z,3.63
2023-01-28T22:21:53.502Z,3.72
2023-01-28T22:24:22.390Z,3.57
2023-01-28T22:26:50.266Z,3.44
2023-01-28T22:29:18.973Z,3.38
2023-01-28T22:31:47.296Z,3.43
2023-01-28T22:34:14.830Z,3.29
2023-01-28T22:36:42.315Z,3.34
2023-01-28T22:39:12.537Z,3.30
2023-01-28T22:41:40.338Z,3.37
2023-01-28T22:44:07.959Z,3.48
2023-01-28T22:46:36.021Z,3.58
2023-01-28T22:49:03.766Z,3.66
2023-01-28T22:51:32.639Z,3.59
2023-01-28T22:54:00.161Z,3.53
2023-01-28T22:56:28.518Z,3.67
2023-01-28T22:59:00.495Z,3.58
2023-01-28T23:01:28.640Z,3.65
2023-01-28T23:03:56.829Z,3.65
2023-01-28T23:06:25.113Z,3.41
2023-01-28T23:08:52.807Z,3.48
2023-01-28T23:11:27.337Z,3.49
2023-01-28T23:14:13.685Z,3.49
2023-01-28T23:16:58.529Z,3.38
2023-01-28T23:19:43.710Z,3.37
2023-01-28T23:22:48.797Z,3.44
2023-01-28T23:25:16.489Z,3.46
2023-01-28T23:27:44.340Z,3.52
2023-01-28T23:30:12.873Z,3.47
2023-01-28T23:32:44.861Z,3.42
2023-01-28T23:35:12.919Z,3.48
2023-01-28T23:37:41.551Z,3.44
2023-01-28T23:40:09.474Z,3.35
2023-01-28T23:42:37.059Z,3.36
2023-01-28T23:45:04.803Z,3.40
2023-01-28T23:47:32.288Z,3.44
2023-01-28T23:49:59.764Z,3.47
2023-01-28T23:52:27.341Z,3.48
2023-01-28T23:54:54.842Z,3.36
2023-01-28T23:57:22.305Z,3.36
2023-01-28T23:59:49.824Z,3.38
